createdAt,value
2023-04-03T00:02:12.991Z,1.54
2023-04-03T00:07:16.366Z,1.46
2023-04-03T00:12:19.311Z,1.34
2023-04-03T00:17:22.246Z,1.23
2023-04-03T00:22:27.218Z,1.13
2023-04-03T00:27:30.154Z,1.04
2023-04-03T00:32:33.252Z,0.96
2023-04-03T00:37:36.565Z,0.87
2023-04-03T00:42:47.696Z,0.77
2023-04-03T00:47:50.966Z,0.68
2023-04-03T00:52:54.095Z,0.63
2023-04-03T00:57:56.998Z,0.55
2023-04-03T01:02:59.948Z,0.49
2023-04-03T01:08:03.024Z,0.45
2023-04-03T01:13:29.894Z,0.36
2023-04-03T01:18:32.719Z,0.28
2023-04-03T01:23:58.377Z,0.22
2023-04-03T01:29:01.546Z,0.15
2023-04-03T01:34:04.516Z,0.11
2023-04-03T01:39:07.473Z,0.05
2023-04-03T01:44:10.437Z,0.04
2023-04-03T01:49:15.716Z,-0.03
2023-04-03T01:54:18.521Z,-0.09
2023-04-03T01:59:21.451Z,-0.14
2023-04-03T02:04:24.468Z,-0.16
2023-04-03T02:09:28.197Z,-0.25
2023-04-03T02:14:31.057Z,-0.30
2023-04-03T02:19:33.935Z,-0.36
2023-04-03T02:24:37.046Z,-0.39
2023-04-03T02:29:39.918Z,-0.47
2023-04-03T02:34:42.701Z,-0.52
2023-04-03T02:39:45.875Z,-0.58
2023-04-03T02:44:48.803Z,-0.62
2023-04-03T02:49:53.716Z,-0.65
2023-04-03T02:54:56.593Z,-0.71
2023-04-03T02:59:59.558Z,-0.75
2023-04-03T03:05:02.554Z,-0.79
2023-04-03T03:10:06.167Z,-0.83
2023-04-03T03:15:09.387Z,-0.87
2023-04-03T03:20:15.372Z,-0.90
2023-04-03T03:25:20.448Z,-0.94
2023-04-03T03:30:23.733Z,-1.01
2023-04-03T03:35:26.631Z,-1.03
2023-04-03T03:40:29.470Z,-1.11
2023-04-03T03:45:32.480Z,-1.15
2023-04-03T03:50:35.507Z,-1.21
2023-04-03T03:55:38.697Z,-1.26
2023-04-03T04:00:42.054Z,-1.28
2023-04-03T04:05:45.020Z,-1.33
2023-04-03T04:10:47.829Z,-1.37
2023-04-03T04:15:50.634Z,-1.42
2023-04-03T04:20:53.460Z,-1.42
2023-04-03T04:25:56.910Z,-1.46
2023-04-03T04:30:59.772Z,-1.48
2023-04-03T04:36:02.974Z,-1.47
2023-04-03T04:41:06.123Z,-1.49
2023-04-03T04:46:12.729Z,-1.48
2023-04-03T04:51:16.165Z,-1.47
2023-04-03T04:56:19.166Z,-1.48
2023-04-03T05:01:21.982Z,-1.49
2023-04-03T05:06:24.842Z,-1.45
2023-04-03T05:11:27.857Z,-1.47
2023-04-03T05:16:31.132Z,-1.43
2023-04-03T05:21:34.154Z,-1.42
2023-04-03T05:26:37.162Z,-1.42
2023-04-03T05:31:40.064Z,-1.38
2023-04-03T05:36:43.348Z,-1.33
2023-04-03T05:41:46.490Z,-1.24
2023-04-03T05:46:49.435Z,-1.13
2023-04-03T05:51:53.079Z,-1.01
2023-04-03T05:56:56.115Z,-0.86
2023-04-03T06:01:59.079Z,-0.72
2023-04-03T06:07:01.951Z,-0.65
2023-04-03T06:12:04.910Z,-0.59
2023-04-03T06:17:09.611Z,-0.55
2023-04-03T06:22:12.814Z,-0.41
2023-04-03T06:27:15.901Z,-0.29
2023-04-03T06:32:18.728Z,-0.19
2023-04-03T06:37:23.350Z,-0.20
2023-04-03T06:42:26.452Z,-0.17
2023-04-03T06:47:29.702Z,-0.08
2023-04-03T06:52:32.538Z,-0.06
2023-04-03T06:57:35.611Z,0.03
2023-04-03T07:02:38.559Z,0.07
2023-04-03T07:07:42.180Z,0.01
2023-04-03T07:12:45.105Z,0.08
2023-04-03T07:17:48.648Z,0.13
2023-04-03T07:22:51.612Z,0.29
2023-04-03T07:27:55.520Z,0.31
2023-04-03T07:32:58.385Z,0.40
2023-04-03T07:38:01.281Z,0.50
2023-04-03T07:43:04.950Z,0.65
2023-04-03T07:48:08.326Z,0.78
2023-04-03T07:53:11.577Z,0.90
2023-04-03T07:58:17.393Z,1.03
2023-04-03T08:03:20.385Z,1.14
2023-04-03T08:08:24.275Z,1.28
2023-04-03T08:13:27.274Z,1.41
2023-04-03T08:18:30.215Z,1.54
2023-04-03T08:23:33.112Z,1.63
2023-04-03T08:28:36.160Z,1.70
2023-04-03T08:33:40.003Z,1.87
2023-04-03T08:38:43.315Z,2.13
2023-04-03T08:44:39.769Z,2.29
2023-04-03T08:49:54.423Z,2.30
2023-04-03T08:54:59.198Z,2.36
2023-04-03T09:00:16.620Z,2.51
2023-04-03T09:05:24.170Z,2.71
2023-04-03T09:10:36.810Z,2.66
2023-04-03T09:15:45.559Z,2.84
2023-04-03T09:21:13.338Z,3.03
2023-04-03T09:26:21.926Z,3.11
2023-04-03T09:31:26.810Z,3.07
2023-04-03T09:36:44.504Z,3.15
2023-04-03T09:42:05.536Z,3.28
2023-04-03T09:47:37.251Z,3.46
2023-04-03T09:52:44.023Z,3.48
2023-04-03T09:57:47.108Z,3.68
2023-04-03T10:02:57.426Z,3.89
2023-04-03T10:08:14.576Z,3.87
2023-04-03T10:13:22.330Z,3.75
2023-04-03T10:18:43.395Z,4.25
2023-04-03T10:24:07.039Z,4.51
2023-04-03T10:30:06.196Z,4.43
2023-04-03T10:35:26.778Z,4.55
2023-04-03T10:40:34.115Z,4.94
2023-04-03T10:46:08.038Z,4.73
2023-04-03T10:51:46.015Z,4.59
2023-04-03T10:57:04.466Z,4.72
2023-04-03T11:02:36.319Z,4.70
2023-04-03T11:07:47.837Z,4.62
2023-04-03T11:13:17.117Z,4.67
2023-04-03T11:18:46.117Z,5.70
2023-04-03T11:23:50.233Z,9.10
2023-04-03T11:29:01.123Z,9.31
2023-04-03T11:34:35.596Z,8.23
2023-04-03T11:39:39.850Z,6.79
2023-04-03T11:44:43.329Z,6.77
2023-04-03T11:50:03.970Z,8.74
2023-04-03T11:55:22.372Z,8.29
2023-04-03T12:00:44.926Z,7.12
2023-04-03T12:05:47.933Z,9.09
2023-04-03T12:11:09.413Z,11.47
2023-04-03T12:16:22.416Z,13.55
2023-04-03T12:21:28.621Z,12.89
2023-04-03T12:26:42.178Z,12.26
2023-04-03T12:32:35.467Z,9.89
2023-04-03T12:38:25.328Z,8.04
2023-04-03T12:43:51.830Z,7.33
2023-04-03T12:48:58.864Z,9.37
2023-04-03T12:54:06.267Z,10.29
2023-04-03T12:59:27.366Z,9.11
2023-04-03T13:04:32.708Z,8.88
2023-04-03T13:09:35.647Z,8.07
2023-04-03T13:14:38.935Z,7.81
2023-04-03T13:19:44.446Z,10.03
2023-04-03T13:24:47.854Z,10.72
2023-04-03T13:29:55.619Z,9.29
2023-04-03T13:35:08.124Z,9.26
2023-04-03T13:40:18.951Z,9.54
2023-04-03T13:45:25.255Z,8.52
2023-04-03T13:50:30.023Z,7.46
2023-04-03T13:55:38.008Z,7.12
2023-04-03T14:00:54.001Z,6.91
2023-04-03T14:05:57.355Z,8.88
2023-04-03T14:11:01.270Z,8.04
2023-04-03T14:16:15.228Z,7.43
2023-04-03T14:21:20.071Z,7.10
2023-04-03T14:26:24.841Z,6.98
2023-04-03T14:31:27.781Z,6.60
2023-04-03T14:36:44.456Z,6.26
2023-04-03T14:41:47.537Z,5.74
2023-04-03T14:51:59.256Z,5.51
2023-04-03T14:57:02.513Z,5.33
2023-04-03T15:02:32.899Z,5.16
2023-04-03T15:07:45.992Z,5.14
2023-04-03T15:12:49.353Z,5.13
2023-04-03T15:17:55.229Z,5.06
2023-04-03T15:22:58.325Z,5.00
2023-04-03T15:28:36.155Z,4.87
2023-04-03T15:33:39.203Z,4.78
2023-04-03T15:38:42.798Z,4.70
2023-04-03T15:43:45.783Z,4.68
2023-04-03T15:48:50.140Z,4.63
2023-04-03T15:53:52.981Z,4.47
2023-04-03T15:58:55.816Z,4.43
2023-04-03T16:03:58.611Z,4.38
2023-04-03T16:09:01.848Z,4.30
2023-04-03T16:14:04.834Z,4.26
2023-04-03T16:19:08.007Z,4.20
2023-04-03T16:24:11.644Z,4.08
2023-04-03T16:29:14.758Z,4.01
2023-04-03T16:34:17.898Z,3.94
2023-04-03T16:39:21.763Z,3.86
2023-04-03T16:44:24.589Z,3.77
2023-04-03T16:49:33.183Z,3.73
2023-04-03T16:54:36.310Z,3.64
2023-04-03T16:59:39.536Z,3.54
2023-04-03T17:04:42.362Z,3.50
2023-04-03T17:09:45.424Z,3.47
2023-04-03T17:14:48.358Z,3.42
2023-04-03T17:19:51.218Z,3.35
2023-04-03T17:24:54.505Z,3.26
2023-04-03T17:29:57.518Z,3.20
2023-04-03T17:35:00.467Z,3.15
2023-04-03T17:40:03.906Z,3.13
2023-04-03T17:45:07.933Z,3.10
2023-04-03T17:50:12.006Z,3.06
2023-04-03T17:55:17.752Z,3.02
2023-04-03T18:00:21.197Z,3.00
2023-04-03T18:05:29.145Z,2.98
2023-04-03T18:10:32.349Z,2.96
2023-04-03T18:15:35.692Z,2.93
2023-04-03T18:20:39.154Z,2.91
2023-04-03T18:25:42.281Z,2.88
2023-04-03T18:30:45.557Z,2.87
2023-04-03T18:35:49.438Z,2.85
2023-04-03T18:40:52.470Z,2.84
2023-04-03T18:45:55.662Z,2.83
2023-04-03T18:50:58.698Z,2.82
2023-04-03T18:56:01.993Z,2.79
2023-04-03T19:01:06.779Z,2.76
2023-04-03T19:06:10.176Z,2.74
2023-04-03T19:11:13.355Z,2.75
2023-04-03T19:16:16.890Z,2.70
2023-04-03T19:21:21.284Z,2.64
2023-04-03T19:26:24.817Z,2.57
2023-04-03T19:31:27.709Z,2.50
2023-04-03T19:36:31.275Z,2.46
2023-04-03T19:41:35.710Z,2.37
2023-04-03T19:46:39.560Z,2.33
2023-04-03T19:51:43.042Z,2.29
2023-04-03T19:56:46.447Z,2.25
2023-04-03T20:01:49.807Z,2.23
2023-04-03T20:06:52.946Z,2.23
2023-04-03T20:12:00.132Z,2.20
2023-04-03T20:17:04.422Z,2.14
2023-04-03T20:22:07.314Z,2.10
2023-04-03T20:27:10.198Z,2.04
2023-04-03T20:32:15.074Z,2.02
2023-04-03T20:37:21.327Z,2.00
2023-04-03T20:42:24.198Z,1.97
2023-04-03T20:47:28.182Z,1.95
2023-04-03T20:52:31.817Z,1.92
2023-04-03T20:57:35.335Z,1.83
2023-04-03T21:02:38.234Z,1.82
2023-04-03T21:08:38.324Z,1.73
2023-04-03T21:14:38.001Z,1.69
2023-04-03T21:19:46.737Z,1.66
2023-04-03T21:24:49.806Z,1.53
2023-04-03T21:29:52.955Z,1.51
2023-04-03T21:34:55.844Z,1.45
2023-04-03T21:39:58.722Z,1.37
2023-04-03T21:45:02.198Z,1.30
2023-04-03T21:50:06.008Z,1.23
2023-04-03T21:55:09.773Z,1.22
2023-04-03T22:00:14.669Z,1.15
2023-04-03T22:05:17.710Z,1.11
2023-04-03T22:10:21.026Z,1.04
2023-04-03T22:15:24.004Z,1.01
2023-04-03T22:20:27.343Z,0.93
2023-04-03T22:25:30.382Z,0.86
2023-04-03T22:30:33.311Z,0.82
2023-04-03T22:35:36.433Z,0.74
2023-04-03T22:40:40.471Z,0.71
2023-04-03T22:45:48.316Z,0.68
2023-04-03T22:50:51.873Z,0.68
2023-04-03T22:55:58.883Z,0.61
2023-04-03T23:01:07.450Z,0.55
2023-04-03T23:06:11.014Z,0.49
2023-04-03T23:11:13.818Z,0.37
2023-04-03T23:16:17.502Z,0.28
2023-04-03T23:21:20.394Z,0.26
2023-04-03T23:26:23.936Z,0.26
2023-04-03T23:31:26.960Z,0.21
2023-04-03T23:36:29.886Z,0.18
2023-04-03T23:41:32.748Z,0.12
2023-04-03T23:46:35.643Z,0.09
2023-04-03T23:51:38.693Z,0.05
2023-04-03T23:56:41.909Z,-0.01
